createdAt,value
2023-11-23T00:00:55.342Z,8.72
2023-11-23T00:01:55.363Z,8.71
2023-11-23T00:02:55.320Z,8.70
2023-11-23T00:03:55.333Z,8.68
2023-11-23T00:04:55.316Z,8.68
2023-11-23T00:05:55.312Z,8.66
2023-11-23T00:06:55.280Z,8.67
2023-11-23T00:07:55.256Z,8.66
2023-11-23T00:08:55.278Z,8.66
2023-11-23T00:09:55.245Z,8.66
2023-11-23T00:10:55.238Z,8.66
2023-11-23T00:11:55.241Z,8.66
2023-11-23T00:12:54.552Z,8.67
2023-11-23T00:13:54.636Z,8.68
2023-11-23T00:14:55.569Z,8.68
2023-11-23T00:15:54.483Z,8.68
2023-11-23T00:16:55.173Z,8.69
2023-11-23T00:17:55.220Z,8.70
2023-11-23T00:18:55.204Z,8.71
2023-11-23T00:19:55.134Z,8.72
2023-11-23T00:20:55.145Z,8.73
2023-11-23T00:21:55.093Z,8.74
2023-11-23T00:22:57.718Z,8.75
2023-11-23T00:23:55.110Z,8.75
2023-11-23T00:24:56.864Z,8.76
2023-11-23T00:25:55.107Z,8.76
2023-11-23T00:26:55.114Z,8.76
2023-11-23T00:27:54.364Z,8.75
2023-11-23T00:28:54.361Z,8.75
2023-11-23T00:29:56.824Z,8.75
2023-11-23T00:30:55.017Z,8.75
2023-11-23T00:31:55.014Z,8.74
2023-11-23T00:32:55.056Z,8.73
2023-11-23T00:33:54.405Z,8.73
2023-11-23T00:34:54.323Z,8.72
2023-11-23T00:35:54.343Z,8.72
2023-11-23T00:36:55.239Z,8.71
2023-11-23T00:37:54.269Z,8.70
2023-11-23T00:38:54.944Z,8.70
2023-11-23T00:39:54.915Z,8.70
2023-11-23T00:40:54.893Z,8.70
2023-11-23T00:41:54.962Z,8.70
2023-11-23T00:42:54.898Z,8.69
2023-11-23T00:43:56.645Z,8.71
2023-11-23T00:44:54.315Z,8.69
2023-11-23T00:45:54.196Z,8.70
2023-11-23T00:46:54.168Z,8.69
2023-11-23T00:47:56.628Z,8.69
2023-11-23T00:48:54.849Z,8.69
2023-11-23T00:49:54.810Z,8.69
2023-11-23T00:50:54.114Z,8.69
2023-11-23T00:51:54.793Z,8.69
2023-11-23T00:52:54.093Z,8.69
2023-11-23T00:53:54.822Z,8.70
2023-11-23T00:54:54.082Z,8.70
2023-11-23T00:55:56.509Z,8.71
2023-11-23T00:56:54.750Z,8.71
2023-11-23T00:57:54.043Z,8.73
2023-11-23T00:58:54.050Z,8.73
2023-11-23T00:59:54.702Z,8.74
2023-11-23T01:00:54.776Z,8.75
2023-11-23T01:01:54.862Z,8.75
2023-11-23T01:02:54.776Z,8.75
2023-11-23T01:03:54.689Z,8.74
2023-11-23T01:04:53.992Z,8.75
2023-11-23T01:05:53.963Z,8.76
2023-11-23T01:06:54.630Z,8.77
2023-11-23T01:07:54.616Z,8.78
2023-11-23T01:08:54.627Z,8.78
2023-11-23T01:09:53.911Z,8.80
2023-11-23T01:10:54.591Z,8.81
2023-11-23T01:11:54.611Z,8.82
2023-11-23T01:12:53.897Z,8.83
2023-11-23T01:13:54.549Z,8.85
2023-11-23T01:14:54.569Z,8.85
2023-11-23T01:15:53.936Z,8.86
2023-11-23T01:16:53.883Z,8.88
2023-11-23T01:17:54.604Z,8.88
2023-11-23T01:18:54.491Z,8.88
2023-11-23T01:19:54.517Z,8.89
2023-11-23T01:20:53.842Z,8.90
2023-11-23T01:21:54.470Z,8.89
2023-11-23T01:22:54.464Z,8.90
2023-11-23T01:23:54.491Z,8.91
2023-11-23T01:24:54.447Z,8.91
2023-11-23T01:25:53.741Z,8.91
2023-11-23T01:26:53.792Z,8.93
2023-11-23T01:27:53.740Z,8.94
2023-11-23T01:28:54.406Z,8.94
2023-11-23T01:29:53.725Z,8.94
2023-11-23T01:30:54.376Z,8.94
2023-11-23T01:31:54.348Z,8.95
2023-11-23T01:32:54.549Z,8.96
2023-11-23T01:33:54.454Z,8.96
2023-11-23T01:34:53.673Z,8.97
2023-11-23T01:35:53.653Z,8.98
2023-11-23T01:36:54.300Z,8.99
2023-11-23T01:37:54.289Z,9.00
2023-11-23T01:38:53.647Z,9.01
2023-11-23T01:39:54.279Z,9.01
2023-11-23T01:40:54.264Z,9.01
2023-11-23T01:41:54.272Z,9.02
2023-11-23T01:42:54.247Z,9.02
2023-11-23T01:43:54.235Z,9.02
2023-11-23T01:44:53.568Z,9.03
2023-11-23T01:45:53.586Z,9.03
2023-11-23T01:46:53.533Z,9.03
2023-11-23T01:47:54.240Z,9.03
2023-11-23T01:48:54.228Z,9.02
2023-11-23T01:49:54.176Z,9.03
2023-11-23T01:50:53.567Z,9.03
2023-11-23T01:51:53.458Z,9.03
2023-11-23T01:52:53.471Z,9.04
2023-11-23T01:53:54.234Z,9.04
2023-11-23T01:54:53.434Z,9.05
2023-11-23T01:55:54.095Z,9.05
2023-11-23T01:56:53.448Z,9.06
2023-11-23T01:57:53.410Z,9.06
2023-11-23T01:58:53.389Z,9.07
2023-11-23T01:59:54.102Z,9.07
2023-11-23T02:00:54.035Z,9.07
2023-11-23T02:01:53.437Z,9.09
2023-11-23T02:02:55.885Z,9.08
2023-11-23T02:03:54.064Z,9.09
2023-11-23T02:04:53.998Z,9.09
2023-11-23T02:05:53.331Z,9.09
2023-11-23T02:06:53.300Z,9.10
2023-11-23T02:07:55.730Z,9.10
2023-11-23T02:08:54.033Z,9.11
2023-11-23T02:09:53.944Z,9.12
2023-11-23T02:10:53.949Z,9.11
2023-11-23T02:11:53.968Z,9.13
2023-11-23T02:12:53.924Z,9.13
2023-11-23T02:13:53.923Z,9.13
2023-11-23T02:14:53.940Z,9.13
2023-11-23T02:15:53.978Z,9.13
2023-11-23T02:16:53.893Z,9.14
2023-11-23T02:17:53.914Z,9.14
2023-11-23T02:18:53.195Z,9.14
2023-11-23T02:19:53.186Z,9.15
2023-11-23T02:20:53.864Z,9.16
2023-11-23T02:21:53.848Z,9.15
2023-11-23T02:22:53.139Z,9.16
2023-11-23T02:23:53.822Z,9.15
2023-11-23T02:24:53.113Z,9.16
2023-11-23T02:25:53.787Z,9.16
2023-11-23T02:26:53.117Z,9.17
2023-11-23T02:27:53.767Z,9.16
2023-11-23T02:28:53.740Z,9.16
2023-11-23T02:29:53.806Z,9.16
2023-11-23T02:30:53.050Z,9.17
2023-11-23T02:31:53.732Z,9.17
2023-11-23T02:32:53.168Z,9.17
2023-11-23T02:33:53.693Z,9.18
2023-11-23T02:34:53.688Z,9.17
2023-11-23T02:35:53.031Z,9.18
2023-11-23T02:36:53.671Z,9.19
2023-11-23T02:37:53.646Z,9.19
2023-11-23T02:38:53.044Z,9.19
2023-11-23T02:39:53.661Z,9.20
2023-11-23T02:40:53.632Z,9.20
2023-11-23T02:41:53.641Z,9.21
2023-11-23T02:42:52.944Z,9.22
2023-11-23T02:43:53.597Z,9.24
2023-11-23T02:44:53.610Z,9.24
2023-11-23T02:45:52.958Z,9.25
2023-11-23T02:46:53.544Z,9.25
2023-11-23T02:47:53.598Z,9.26
2023-11-23T02:48:52.872Z,9.28
2023-11-23T02:49:53.529Z,9.29
2023-11-23T02:50:53.537Z,9.30
2023-11-23T02:51:53.497Z,9.31
2023-11-23T02:52:53.496Z,9.33
2023-11-23T02:53:53.571Z,9.33
2023-11-23T02:54:52.787Z,9.34
2023-11-23T02:55:52.804Z,9.36
2023-11-23T02:56:55.262Z,9.36
2023-11-23T02:57:53.446Z,9.38
2023-11-23T02:58:53.436Z,9.39
2023-11-23T02:59:52.765Z,9.39
2023-11-23T03:00:53.419Z,9.41
